sensor_id;sensor_type;location;lat;lon;timestamp;pressure;altitude;pressure_sealevel;temperature;humidity
49341;BME280;35209;51.050;13.678;2024-03-02T00:04:18;150606.63;;;7.70;100.00
49341;BME280;35209;51.050;13.678;2024-03-02T00:09:19;150586.06;;;7.62;100.00
49341;BME280;35209;51.050;13.678;2024-03-02T00:14:25;150564.16;;;7.53;100.00
49341;BME280;35209;51.050;13.678;2024-03-02T00:19:27;150548.66;;;7.47;100.00
49341;BME280;35209;51.050;13.678;2024-03-02T00:24:34;150577.03;;;7.58;100.00
49341;BME280;35209;51.050;13.678;2024-03-02T00:29:36;150593.75;;;7.65;100.00
49341;BME280;35209;51.050;13.678;2024-03-02T00:34:38;150610.53;;;7.71;100.00
49341;BME280;35209;51.050;13.678;2024-03-02T00:39:40;150622.13;;;7.76;100.00
49341;BME280;35209;51.050;13.678;2024-03-02T00:44:42;150749.66;;;8.26;100.00
49341;BME280;35209;51.050;13.678;2024-03-02T00:49:46;150669.78;;;7.95;100.00
49341;BME280;35209;51.050;13.678;2024-03-02T00:54:49;150622.13;;;7.76;100.00
49341;BME280;35209;51.050;13.678;2024-03-02T00:59:51;150616.94;;;7.74;100.00
49341;BME280;35209;51.050;13.678;2024-03-02T01:04:53;150650.44;;;7.87;100.00
49341;BME280;35209;51.050;13.678;2024-03-02T01:09:55;150616.94;;;7.74;100.00
49341;BME280;35209;51.050;13.678;2024-03-02T01:14:57;150580.88;;;7.59;100.00
49341;BME280;35209;51.050;13.678;2024-03-02T01:19:59;150606.63;;;7.70;100.00
49341;BME280;35209;51.050;13.678;2024-03-02T01:25:01;150588.63;;;7.63;100.00
49341;BME280;35209;51.050;13.678;2024-03-02T01:30:03;150611.81;;;7.72;100.00
49341;BME280;35209;51.050;13.678;2024-03-02T01:35:05;150582.16;;;7.60;100.00
49341;BME280;35209;51.050;13.678;2024-03-02T01:40:09;150602.78;;;7.68;100.00
49341;BME280;35209;51.050;13.678;2024-03-02T01:45:11;150669.78;;;7.95;100.00
49341;BME280;35209;51.050;13.678;2024-03-02T01:50:13;150646.59;;;7.86;100.00
49341;BME280;35209;51.050;13.678;2024-03-02T01:55:15;150638.84;;;7.82;100.00
49341;BME280;35209;51.050;13.678;2024-03-02T02:00:17;150593.75;;;7.65;100.00
49341;BME280;35209;51.050;13.678;2024-03-02T02:05:19;150596.31;;;7.66;100.00
49341;BME280;35209;51.050;13.678;2024-03-02T02:10:21;150642.72;;;7.84;100.00
49341;BME280;35209;51.050;13.678;2024-03-02T02:15:27;150659.47;;;7.91;100.00
49341;BME280;35209;51.050;13.678;2024-03-02T02:20:30;150622.13;;;7.76;100.00
49341;BME280;35209;51.050;13.678;2024-03-02T02:25:31;150619.53;;;7.75;100.00
49341;BME280;35209;51.050;13.678;2024-03-02T02:30:33;150681.38;;;7.99;100.00
49341;BME280;35209;51.050;13.678;2024-03-02T02:35:35;150635.00;;;7.81;100.00
49341;BME280;35209;51.050;13.678;2024-03-02T02:40:37;150629.81;;;7.79;100.00
49341;BME280;35209;51.050;13.678;2024-03-02T02:45:38;150685.22;;;8.01;100.00
49341;BME280;35209;51.050;13.678;2024-03-02T02:50:41;150624.69;;;7.77;100.00
49341;BME280;35209;51.050;13.678;2024-03-02T02:55:43;150616.94;;;7.74;100.00
49341;BME280;35209;51.050;13.678;2024-03-02T03:00:45;150588.63;;;7.63;100.00
49341;BME280;35209;51.050;13.678;2024-03-02T03:05:48;150690.41;;;8.03;100.00
49341;BME280;35209;51.050;13.678;2024-03-02T03:10:50;150613.09;;;7.72;100.00
49341;BME280;35209;51.050;13.678;2024-03-02T03:15:52;150602.78;;;7.68;100.00
49341;BME280;35209;51.050;13.678;2024-03-02T03:20:54;150610.53;;;7.71;100.00
49341;BME280;35209;51.050;13.678;2024-03-02T03:25:56;150591.19;;;7.64;100.00
49341;BME280;35209;51.050;13.678;2024-03-02T03:30:58;150659.47;;;7.91;100.00
49341;BME280;35209;51.050;13.678;2024-03-02T03:36:00;150589.91;;;7.63;100.00
49341;BME280;35209;51.050;13.678;2024-03-02T03:41:04;150558.97;;;7.51;100.00
49341;BME280;35209;51.050;13.678;2024-03-02T03:46:07;150557.69;;;7.50;100.00
49341;BME280;35209;51.050;13.678;2024-03-02T03:51:09;150546.09;;;7.46;100.00
49341;BME280;35209;51.050;13.678;2024-03-02T03:56:11;150597.66;;;7.66;100.00
49341;BME280;35209;51.050;13.678;2024-03-02T04:01:12;150571.84;;;7.56;100.00
49341;BME280;35209;51.050;13.678;2024-03-02T04:06:14;150588.63;;;7.63;100.00
49341;BME280;35209;51.050;13.678;2024-03-02T04:11:18;150611.81;;;7.72;100.00
49341;BME280;35209;51.050;13.678;2024-03-02T04:16:20;150571.84;;;7.56;100.00
49341;BME280;35209;51.050;13.678;2024-03-02T04:21:21;150535.78;;;7.42;100.00
49341;BME280;35209;51.050;13.678;2024-03-02T04:26:23;150553.84;;;7.49;100.00
49341;BME280;35209;51.050;13.678;2024-03-02T04:31:26;150561.53;;;7.52;100.00
49341;BME280;35209;51.050;13.678;2024-03-02T04:36:28;150586.06;;;7.62;100.00
49341;BME280;35209;51.050;13.678;2024-03-02T04:41:30;150561.53;;;7.52;100.00
49341;BME280;35209;51.050;13.678;2024-03-02T04:46:32;150557.69;;;7.50;100.00
49341;BME280;35209;51.050;13.678;2024-03-02T04:51:33;150557.69;;;7.50;100.00
49341;BME280;35209;51.050;13.678;2024-03-02T04:56:35;150553.84;;;7.49;100.00
49341;BME280;35209;51.050;13.678;2024-03-02T05:01:51;150529.34;;;7.39;100.00
49341;BME280;35209;51.050;13.678;2024-03-02T05:06:53;150531.94;;;7.40;100.00
49341;BME280;35209;51.050;13.678;2024-03-02T05:11:57;150511.31;;;7.32;100.00
49341;BME280;35209;51.050;13.678;2024-03-02T05:17:10;150588.63;;;7.63;100.00
49341;BME280;35209;51.050;13.678;2024-03-02T05:22:12;150605.34;;;7.69;100.00
49341;BME280;35209;51.050;13.678;2024-03-02T05:27:14;150619.53;;;7.75;100.00
49341;BME280;35209;51.050;13.678;2024-03-02T05:32:16;150560.25;;;7.51;100.00
49341;BME280;35209;51.050;13.678;2024-03-02T05:37:18;150547.38;;;7.46;100.00
49341;BME280;35209;51.050;13.678;2024-03-02T05:42:20;150564.16;;;7.53;100.00
49341;BME280;35209;51.050;13.678;2024-03-02T05:47:22;150573.13;;;7.56;100.00
49341;BME280;35209;51.050;13.678;2024-03-02T05:52:23;150645.31;;;7.85;100.00
49341;BME280;35209;51.050;13.678;2024-03-02T05:57:25;150604.06;;;7.69;100.00
49341;BME280;35209;51.050;13.678;2024-03-02T06:02:45;150561.53;;;7.52;100.00
49341;BME280;35209;51.050;13.678;2024-03-02T06:07:47;150534.50;;;7.41;100.00
49341;BME280;35209;51.050;13.678;2024-03-02T06:12:49;150542.25;;;7.44;100.00
49341;BME280;35209;51.050;13.678;2024-03-02T06:17:51;150552.56;;;7.48;100.00
49341;BME280;35209;51.050;13.678;2024-03-02T06:22:52;150582.16;;;7.60;100.00
49341;BME280;35209;51.050;13.678;2024-03-02T06:27:54;150557.69;;;7.50;100.00
49341;BME280;35209;51.050;13.678;2024-03-02T06:32:56;150561.53;;;7.52;100.00
49341;BME280;35209;51.050;13.678;2024-03-02T06:37:58;150574.47;;;7.57;100.00
49341;BME280;35209;51.050;13.678;2024-03-02T06:42:59;150557.69;;;7.50;100.00
49341;BME280;35209;51.050;13.678;2024-03-02T06:48:01;150547.38;;;7.46;100.00
49341;BME280;35209;51.050;13.678;2024-03-02T06:53:03;150583.44;;;7.61;100.00
49341;BME280;35209;51.050;13.678;2024-03-02T06:58:05;150565.44;;;7.53;100.00
49341;BME280;35209;51.050;13.678;2024-03-02T07:03:07;150614.38;;;7.73;100.00
49341;BME280;35209;51.050;13.678;2024-03-02T07:08:09;150642.72;;;7.84;100.00
49341;BME280;35209;51.050;13.678;2024-03-02T07:13:11;150589.91;;;7.63;100.00
49341;BME280;35209;51.050;13.678;2024-03-02T07:18:14;150551.22;;;7.48;100.00
49341;BME280;35209;51.050;13.678;2024-03-02T07:23:16;150575.75;;;7.57;100.00
49341;BME280;35209;51.050;13.678;2024-03-02T07:28:18;150546.09;;;7.46;100.00
49341;BME280;35209;51.050;13.678;2024-03-02T07:33:20;150602.78;;;7.68;100.00
49341;BME280;35209;51.050;13.678;2024-03-02T07:38:23;150633.72;;;7.80;100.00
49341;BME280;35209;51.050;13.678;2024-03-02T07:43:25;150640.13;;;7.83;100.00
49341;BME280;35209;51.050;13.678;2024-03-02T07:48:27;150708.41;;;8.10;100.00
49341;BME280;35209;51.050;13.678;2024-03-02T07:53:29;150674.91;;;7.97;100.00
49341;BME280;35209;51.050;13.678;2024-03-02T07:58:31;150642.72;;;7.84;100.00
49341;BME280;35209;51.050;13.678;2024-03-02T08:03:33;150656.91;;;7.90;100.00
49341;BME280;35209;51.050;13.678;2024-03-02T08:08:36;150665.91;;;7.93;100.00
49341;BME280;35209;51.050;13.678;2024-03-02T08:13:38;150669.78;;;7.95;100.00
49341;BME280;35209;51.050;13.678;2024-03-02T08:18:39;150681.38;;;7.99;100.00
49341;BME280;35209;51.050;13.678;2024-03-02T08:23:42;150738.06;;;8.22;100.00
49341;BME280;35209;51.050;13.678;2024-03-02T08:28:45;150744.53;;;8.24;100.00
49341;BME280;35209;51.050;13.678;2024-03-02T08:33:47;150830.91;;;8.58;100.00
49341;BME280;35209;51.050;13.678;2024-03-02T08:38:50;150812.88;;;8.51;100.00
49341;BME280;35209;51.050;13.678;2024-03-02T08:43:52;150895.38;;;8.84;100.00
49341;BME280;35209;51.050;13.678;2024-03-02T08:48:54;150908.28;;;8.89;100.00
49341;BME280;35209;51.050;13.678;2024-03-02T08:53:56;150869.63;;;8.74;100.00
49341;BME280;35209;51.050;13.678;2024-03-02T08:58:59;150856.72;;;8.69;100.00
49341;BME280;35209;51.050;13.678;2024-03-02T09:04:01;150867.06;;;8.73;100.00
49341;BME280;35209;51.050;13.678;2024-03-02T09:09:03;150935.38;;;9.00;100.00
49341;BME280;35209;51.050;13.678;2024-03-02T09:14:06;150963.72;;;9.11;100.00
49341;BME280;35209;51.050;13.678;2024-03-02T09:19:08;151088.84;;;9.60;100.00
49341;BME280;35209;51.050;13.678;2024-03-02T09:24:11;151174.03;;;9.94;100.00
49341;BME280;35209;51.050;13.678;2024-03-02T09:29:17;151135.34;;;9.79;100.00
49341;BME280;35209;51.050;13.678;2024-03-02T09:34:19;151146.94;;;9.83;100.00
49341;BME280;35209;51.050;13.678;2024-03-02T09:39:21;151118.53;;;9.72;100.00
49341;BME280;35209;51.050;13.678;2024-03-02T09:44:23;151176.59;;;9.95;100.00
49341;BME280;35209;51.050;13.678;2024-03-02T09:49:26;151131.44;;;9.77;100.00
49341;BME280;35209;51.050;13.678;2024-03-02T09:54:28;151135.34;;;9.79;100.00
49341;BME280;35209;51.050;13.678;2024-03-02T09:59:30;151161.13;;;9.89;100.00
49341;BME280;35209;51.050;13.678;2024-03-02T10:04:33;151233.41;;;10.18;100.00
49341;BME280;35209;51.050;13.678;2024-03-02T10:09:35;151312.19;;;10.49;100.00
49341;BME280;35209;51.050;13.678;2024-03-02T10:14:37;151268.34;;;10.31;100.00
49341;BME280;35209;51.050;13.678;2024-03-02T10:19:39;151193.41;;;10.02;100.00
49341;BME280;35209;51.050;13.678;2024-03-02T10:24:43;151122.41;;;9.74;100.00
49341;BME280;35209;51.050;13.678;2024-03-02T10:29:52;151192.13;;;10.01;100.00
49341;BME280;35209;51.050;13.678;2024-03-02T10:34:54;151250.25;;;10.24;100.00
49341;BME280;35209;51.050;13.678;2024-03-02T10:39:56;151205.03;;;10.06;100.00
49341;BME280;35209;51.050;13.678;2024-03-02T10:44:58;151268.34;;;10.31;100.00
49341;BME280;35209;51.050;13.678;2024-03-02T10:50:00;151307.03;;;10.47;100.00
49341;BME280;35209;51.050;13.678;2024-03-02T10:55:03;151376.75;;;10.74;100.00
49341;BME280;35209;51.050;13.678;2024-03-02T11:00:11;151414.25;;;10.89;100.00
49341;BME280;35209;51.050;13.678;2024-03-02T11:05:23;151433.56;;;10.97;100.00
49341;BME280;35209;51.050;13.678;2024-03-02T11:10:31;151427.16;;;10.94;100.00
49341;BME280;35209;51.050;13.678;2024-03-02T11:15:35;151569.22;;;11.50;99.94
49341;BME280;35209;51.050;13.678;2024-03-02T11:20:40;151795.50;;;12.40;91.24
49341;BME280;35209;51.050;13.678;2024-03-02T11:25:42;151734.69;;;12.16;90.47
49341;BME280;35209;51.050;13.678;2024-03-02T11:35:46;152025.72;;;13.30;82.53
49341;BME280;35209;51.050;13.678;2024-03-02T11:40:49;152121.50;;;13.68;77.67
49341;BME280;35209;51.050;13.678;2024-03-02T11:45:56;151975.25;;;13.10;79.59
49341;BME280;35209;51.050;13.678;2024-03-02T11:51:00;151905.38;;;12.83;81.62
49341;BME280;35209;51.050;13.678;2024-03-02T11:56:02;151851.03;;;12.61;83.91
49341;BME280;35209;51.050;13.678;2024-03-02T12:01:04;151763.16;;;12.27;84.42
49341;BME280;35209;51.050;13.678;2024-03-02T12:06:06;151794.16;;;12.39;82.41
49341;BME280;35209;51.050;13.678;2024-03-02T12:11:13;151794.16;;;12.39;83.14
49341;BME280;35209;51.050;13.678;2024-03-02T12:16:23;151786.44;;;12.36;82.42
49341;BME280;35209;51.050;13.678;2024-03-02T12:21:25;151834.25;;;12.55;79.94
49341;BME280;35209;51.050;13.678;2024-03-02T12:26:28;151776.09;;;12.32;79.91
49341;BME280;35209;51.050;13.678;2024-03-02T12:31:30;151794.16;;;12.39;81.19
49341;BME280;35209;51.050;13.678;2024-03-02T12:36:40;151724.34;;;12.11;83.05
49341;BME280;35209;51.050;13.678;2024-03-02T12:41:43;151748.91;;;12.21;82.17
49341;BME280;35209;51.050;13.678;2024-03-02T12:46:46;151733.41;;;12.15;81.74
49341;BME280;35209;51.050;13.678;2024-03-02T12:51:48;151655.84;;;11.84;80.59
49341;BME280;35209;51.050;13.678;2024-03-02T12:56:54;151649.31;;;11.82;81.54
49341;BME280;35209;51.050;13.678;2024-03-02T13:01:56;151681.69;;;11.95;80.72
49341;BME280;35209;51.050;13.678;2024-03-02T13:07:01;151721.78;;;12.10;81.86
49341;BME280;35209;51.050;13.678;2024-03-02T13:12:04;151768.31;;;12.29;78.97
49341;BME280;35209;51.050;13.678;2024-03-02T13:17:08;151689.47;;;11.98;78.59
49341;BME280;35209;51.050;13.678;2024-03-02T13:22:10;151706.28;;;12.04;77.87
49341;BME280;35209;51.050;13.678;2024-03-02T13:27:11;151677.84;;;11.93;79.72
49341;BME280;35209;51.050;13.678;2024-03-02T13:32:14;151721.78;;;12.10;78.68
49341;BME280;35209;51.050;13.678;2024-03-02T13:37:16;151684.31;;;11.96;79.01
49341;BME280;35209;51.050;13.678;2024-03-02T13:42:18;151658.44;;;11.85;78.08
49341;BME280;35209;51.050;13.678;2024-03-02T13:47:20;151679.13;;;11.94;78.15
49341;BME280;35209;51.050;13.678;2024-03-02T13:52:23;151549.88;;;11.43;79.83
49341;BME280;35209;51.050;13.678;2024-03-02T13:57:24;151605.44;;;11.65;79.96
49341;BME280;35209;51.050;13.678;2024-03-02T14:02:28;151582.19;;;11.55;80.66
49341;BME280;35209;51.050;13.678;2024-03-02T14:07:29;151561.50;;;11.47;82.51
49341;BME280;35209;51.050;13.678;2024-03-02T14:12:31;151551.16;;;11.43;80.27
49341;BME280;35209;51.050;13.678;2024-03-02T14:17:33;151511.09;;;11.27;83.04
49341;BME280;35209;51.050;13.678;2024-03-02T14:22:35;151511.09;;;11.27;82.48
49341;BME280;35209;51.050;13.678;2024-03-02T14:27:38;151570.50;;;11.51;81.42
49341;BME280;35209;51.050;13.678;2024-03-02T14:33:00;151513.66;;;11.28;83.19
49341;BME280;35209;51.050;13.678;2024-03-02T14:38:02;151507.22;;;11.26;83.64
49341;BME280;35209;51.050;13.678;2024-03-02T14:43:04;151538.25;;;11.38;82.22
49341;BME280;35209;51.050;13.678;2024-03-02T14:48:06;151495.59;;;11.21;82.44
49341;BME280;35209;51.050;13.678;2024-03-02T14:53:08;151505.94;;;11.25;83.00
49341;BME280;35209;51.050;13.678;2024-03-02T14:58:10;151460.72;;;11.07;83.78
49341;BME280;35209;51.050;13.678;2024-03-02T15:03:12;151525.28;;;11.33;82.97
49341;BME280;35209;51.050;13.678;2024-03-02T15:08:14;151473.63;;;11.13;83.45
49341;BME280;35209;51.050;13.678;2024-03-02T15:13:16;151494.31;;;11.21;82.68
49341;BME280;35209;51.050;13.678;2024-03-02T15:18:18;151407.75;;;10.86;84.49
49341;BME280;35209;51.050;13.678;2024-03-02T15:23:20;151405.19;;;10.85;84.37
49341;BME280;35209;51.050;13.678;2024-03-02T15:28:22;151478.78;;;11.15;81.11
49341;BME280;35209;51.050;13.678;2024-03-02T15:33:23;151440.06;;;10.99;81.78
49341;BME280;35209;51.050;13.678;2024-03-02T15:38:31;151450.41;;;11.03;80.39
49341;BME280;35209;51.050;13.678;2024-03-02T15:43:37;151421.94;;;10.92;80.16
49341;BME280;35209;51.050;13.678;2024-03-02T15:48:41;151378.03;;;10.75;81.27
49341;BME280;35209;51.050;13.678;2024-03-02T15:53:43;151375.47;;;10.74;82.46
49341;BME280;35209;51.050;13.678;2024-03-02T15:58:45;151378.03;;;10.75;82.18
49341;BME280;35209;51.050;13.678;2024-03-02T16:03:47;151361.28;;;10.68;82.53
49341;BME280;35209;51.050;13.678;2024-03-02T16:08:52;151372.91;;;10.73;82.10
49341;BME280;35209;51.050;13.678;2024-03-02T16:13:54;151349.66;;;10.64;82.35
49341;BME280;35209;51.050;13.678;2024-03-02T16:18:57;151318.66;;;10.51;82.55
49341;BME280;35209;51.050;13.678;2024-03-02T16:23:59;151321.22;;;10.52;82.49
49341;BME280;35209;51.050;13.678;2024-03-02T16:29:01;151332.84;;;10.57;81.87
49341;BME280;35209;51.050;13.678;2024-03-02T16:34:04;151323.81;;;10.53;83.04
49341;BME280;35209;51.050;13.678;2024-03-02T16:39:06;151321.22;;;10.52;83.49
49341;BME280;35209;51.050;13.678;2024-03-02T16:44:10;151325.13;;;10.54;83.78
49341;BME280;35209;51.050;13.678;2024-03-02T16:49:11;151334.13;;;10.57;82.83
49341;BME280;35209;51.050;13.678;2024-03-02T16:54:13;151286.38;;;10.39;84.24
49341;BME280;35209;51.050;13.678;2024-03-02T16:59:15;151283.81;;;10.38;85.87
49341;BME280;35209;51.050;13.678;2024-03-02T17:04:17;151278.63;;;10.35;85.71
49341;BME280;35209;51.050;13.678;2024-03-02T17:09:21;151344.47;;;10.61;84.01
49341;BME280;35209;51.050;13.678;2024-03-02T17:14:23;151305.75;;;10.46;84.63
49341;BME280;35209;51.050;13.678;2024-03-02T17:19:26;151246.34;;;10.23;86.49
49341;BME280;35209;51.050;13.678;2024-03-02T17:24:27;151242.44;;;10.21;87.09
49341;BME280;35209;51.050;13.678;2024-03-02T17:29:29;151335.41;;;10.58;84.68
49341;BME280;35209;51.050;13.678;2024-03-02T17:34:32;151288.94;;;10.40;85.68
49341;BME280;35209;51.050;13.678;2024-03-02T17:39:34;151197.25;;;10.03;88.97
49341;BME280;35209;51.050;13.678;2024-03-02T17:44:35;151225.69;;;10.15;88.38
49341;BME280;35209;51.050;13.678;2024-03-02T17:49:37;151248.91;;;10.24;87.31
49341;BME280;35209;51.050;13.678;2024-03-02T17:54:39;151154.66;;;9.86;89.54
49341;BME280;35209;51.050;13.678;2024-03-02T17:59:42;151108.22;;;9.68;90.44
49341;BME280;35209;51.050;13.678;2024-03-02T18:04:45;151145.66;;;9.83;90.70
49341;BME280;35209;51.050;13.678;2024-03-02T18:09:47;151101.78;;;9.66;91.35
49341;BME280;35209;51.050;13.678;2024-03-02T18:14:48;151034.72;;;9.39;93.39
49341;BME280;35209;51.050;13.678;2024-03-02T18:19:51;151024.38;;;9.35;94.78
49341;BME280;35209;51.050;13.678;2024-03-02T18:24:53;150958.59;;;9.09;95.41
49341;BME280;35209;51.050;13.678;2024-03-02T18:29:54;150896.69;;;8.84;97.69
49341;BME280;35209;51.050;13.678;2024-03-02T18:34:56;150885.06;;;8.80;98.80
49341;BME280;35209;51.050;13.678;2024-03-02T18:39:58;150897.97;;;8.85;99.40
49341;BME280;35209;51.050;13.678;2024-03-02T18:45:01;150878.66;;;8.77;99.42
49341;BME280;35209;51.050;13.678;2024-03-02T18:50:07;150846.41;;;8.65;100.00
49341;BME280;35209;51.050;13.678;2024-03-02T18:55:12;150800.00;;;8.46;100.00
49341;BME280;35209;51.050;13.678;2024-03-02T19:00:14;150758.69;;;8.30;100.00
49341;BME280;35209;51.050;13.678;2024-03-02T19:05:16;150769.00;;;8.34;100.00
49341;BME280;35209;51.050;13.678;2024-03-02T19:10:18;150718.72;;;8.14;100.00
49341;BME280;35209;51.050;13.678;2024-03-02T19:15:20;150703.28;;;8.08;100.00
49341;BME280;35209;51.050;13.678;2024-03-02T19:20:22;150676.22;;;7.97;100.00
49341;BME280;35209;51.050;13.678;2024-03-02T19:25:25;150664.63;;;7.93;100.00
49341;BME280;35209;51.050;13.678;2024-03-02T19:30:26;150713.59;;;8.12;100.00
49341;BME280;35209;51.050;13.678;2024-03-02T19:35:29;150653.03;;;7.88;100.00
49341;BME280;35209;51.050;13.678;2024-03-02T19:40:30;150702.00;;;8.07;100.00
49341;BME280;35209;51.050;13.678;2024-03-02T19:45:32;150637.56;;;7.82;100.00
49341;BME280;35209;51.050;13.678;2024-03-02T19:50:34;150588.63;;;7.63;100.00
49341;BME280;35209;51.050;13.678;2024-03-02T19:55:38;150656.91;;;7.90;100.00
49341;BME280;35209;51.050;13.678;2024-03-02T20:00:41;150622.13;;;7.76;100.00
49341;BME280;35209;51.050;13.678;2024-03-02T20:05:43;150548.66;;;7.47;100.00
49341;BME280;35209;51.050;13.678;2024-03-02T20:10:45;150512.59;;;7.32;100.00
49341;BME280;35209;51.050;13.678;2024-03-02T20:15:48;150535.78;;;7.42;100.00
49341;BME280;35209;51.050;13.678;2024-03-02T20:20:50;150537.06;;;7.42;100.00
49341;BME280;35209;51.050;13.678;2024-03-02T20:25:52;150548.66;;;7.47;100.00
49341;BME280;35209;51.050;13.678;2024-03-02T20:30:56;150520.34;;;7.36;100.00
49341;BME280;35209;51.050;13.678;2024-03-02T20:35:57;150503.59;;;7.29;100.00
49341;BME280;35209;51.050;13.678;2024-03-02T20:40:59;150524.19;;;7.37;100.00
49341;BME280;35209;51.050;13.678;2024-03-02T20:46:01;150534.50;;;7.41;100.00
49341;BME280;35209;51.050;13.678;2024-03-02T20:51:08;150632.44;;;7.80;100.00
49341;BME280;35209;51.050;13.678;2024-03-02T20:56:10;150692.97;;;8.04;100.00
49341;BME280;35209;51.050;13.678;2024-03-02T21:01:12;150711.03;;;8.11;100.00
49341;BME280;35209;51.050;13.678;2024-03-02T21:06:13;150702.00;;;8.07;100.00
49341;BME280;35209;51.050;13.678;2024-03-02T21:11:15;150654.31;;;7.89;100.00
49341;BME280;35209;51.050;13.678;2024-03-02T21:16:19;150611.81;;;7.72;100.00
49341;BME280;35209;51.050;13.678;2024-03-02T21:21:21;150664.63;;;7.93;100.00
49341;BME280;35209;51.050;13.678;2024-03-02T21:26:23;150683.94;;;8.00;100.00
49341;BME280;35209;51.050;13.678;2024-03-02T21:31:25;150646.59;;;7.86;100.00
49341;BME280;35209;51.050;13.678;2024-03-02T21:36:27;150646.59;;;7.86;100.00
49341;BME280;35209;51.050;13.678;2024-03-02T21:41:29;150658.19;;;7.90;100.00
49341;BME280;35209;51.050;13.678;2024-03-02T21:46:30;150565.44;;;7.53;100.00
49341;BME280;35209;51.050;13.678;2024-03-02T21:51:32;150499.75;;;7.27;100.00
49341;BME280;35209;51.050;13.678;2024-03-02T21:56:34;150466.25;;;7.14;100.00
49341;BME280;35209;51.050;13.678;2024-03-02T22:01:36;150462.34;;;7.13;100.00
49341;BME280;35209;51.050;13.678;2024-03-02T22:06:38;150430.22;;;7.00;100.00
49341;BME280;35209;51.050;13.678;2024-03-02T22:11:40;150396.75;;;6.87;100.00
49341;BME280;35209;51.050;13.678;2024-03-02T22:16:42;150377.41;;;6.79;100.00
49341;BME280;35209;51.050;13.678;2024-03-02T22:21:44;150354.25;;;6.70;100.00
49341;BME280;35209;51.050;13.678;2024-03-02T22:26:46;150296.31;;;6.47;100.00
49341;BME280;35209;51.050;13.678;2024-03-02T22:31:48;150274.44;;;6.38;100.00
49341;BME280;35209;51.050;13.678;2024-03-02T22:36:50;150226.81;;;6.19;100.00
49341;BME280;35209;51.050;13.678;2024-03-02T22:41:51;150221.69;;;6.17;100.00
49341;BME280;35209;51.050;13.678;2024-03-02T22:46:54;150306.63;;;6.51;100.00
49341;BME280;35209;51.050;13.678;2024-03-02T22:51:56;150260.25;;;6.32;100.00
49341;BME280;35209;51.050;13.678;2024-03-02T22:56:58;150302.75;;;6.49;100.00
49341;BME280;35209;51.050;13.678;2024-03-02T23:02:00;150252.56;;;6.29;100.00
49341;BME280;35209;51.050;13.678;2024-03-02T23:07:02;150217.81;;;6.16;100.00
49341;BME280;35209;51.050;13.678;2024-03-02T23:12:04;150252.56;;;6.29;100.00
49341;BME280;35209;51.050;13.678;2024-03-02T23:17:06;150260.25;;;6.32;100.00
49341;BME280;35209;51.050;13.678;2024-03-02T23:22:08;150197.25;;;6.07;100.00
49341;BME280;35209;51.050;13.678;2024-03-02T23:27:11;150204.91;;;6.11;100.00
49341;BME280;35209;51.050;13.678;2024-03-02T23:32:13;150157.34;;;5.92;100.00
49341;BME280;35209;51.050;13.678;2024-03-02T23:37:15;150126.41;;;5.79;100.00
49341;BME280;35209;51.050;13.678;2024-03-02T23:42:17;150202.34;;;6.10;100.00
49341;BME280;35209;51.050;13.678;2024-03-02T23:47:19;150192.06;;;6.05;100.00
49341;BME280;35209;51.050;13.678;2024-03-02T23:52:24;150130.28;;;5.81;100.00
49341;BME280;35209;51.050;13.678;2024-03-02T23:57:26;150051.84;;;5.50;100.00
